Weather History for Fairmont, MN

Change the Weather History Date:

Tuesday, January 22, 2013

  Actual Average Record
Temperature  
Mean Temperature 6 °F -  
Max Temperature 17 °F 27 °F 48 °F (1981)
Min Temperature -2 °F 9 °F -20 °F (1963)
Degree Days  
Heating Degree Days 58    
Moisture  
Dew Point -4 °F    
Average Humidity 60    
Maximum Humidity 78    
Minimum Humidity 45    
Precipitation  
Precipitation 0.00 in - - ()
Sea Level Pressure  
Sea Level Pressure 30.29 in    
Wind  
Wind Speed 7 mph (West)    
Max Wind Speed 10 mph    
Max Gust Speed -    
Visibility 10 miles    
Events      
Averages and records for this station are not official NWS values.
T = Trace of Precipitation, MM = Missing Value Source: NWS Daily Summary

Daily Weather History Graph

Daily Weather History Graph

Search for Another Location

Airport:

Trip Planner

Search our weather history database for the weather conditions in past years. The results will help you decide how hot, cold, wet, or windy it might be!

Date:

Astronomy

Jan. 22, 2013 Rise Set
Actual Time 7:43 AM CST 5:15 PM CST
Civil Twilight 7:12 AM CST 5:47 PM CST
Nautical Twilight 6:37 AM CST 6:22 PM CST
Astronomical Twilight 6:03 AM CST 6:56 PM CST
Moon 1:37 PM CST (1/22) 4:06 AM CST (1/22)
Length of Visible Light 10h 35m
Length of Day
9h 32m
Waxing Gibbous, 83% of the Moon is Illuminated
Jan 22
Waxing Gibbous
Jan 26
Full
Feb 3
Last Quarter
Feb 10
New
Feb 17
First Quarter

Hourly Weather History & Observations

Time (CST) Temp. Windchill Dew Point Humidity Pressure Visibility Wind Dir Wind Speed Gust Speed Precip Events Conditions
12:15 AM 1.4 °F -14.5 °F -7.6 °F 66% 30.28 in 10.0 mi WNW 10.4 mph - N/A   Clear
12:35 AM 1.4 °F -14.5 °F -7.6 °F 66% 30.29 in 10.0 mi WNW 10.4 mph - N/A   Clear
12:55 AM 1.4 °F -13.5 °F -7.6 °F 66% 30.28 in 10.0 mi WNW 9.2 mph - N/A   Clear
1:15 AM 1.4 °F -12.5 °F -7.6 °F 66% 30.29 in 10.0 mi WNW 8.1 mph - N/A   Clear
1:35 AM 1.4 °F -11.3 °F -7.6 °F 66% 30.29 in 10.0 mi WNW 6.9 mph - N/A   Clear
1:55 AM 1.4 °F -11.3 °F -7.6 °F 66% 30.30 in 10.0 mi WNW 6.9 mph - N/A   Clear
2:15 AM -0.4 °F -12.0 °F -7.6 °F 72% 30.30 in 10.0 mi WNW 5.8 mph - N/A   Clear
2:35 AM -0.4 °F -13.4 °F -7.6 °F 72% 30.31 in 10.0 mi WNW 6.9 mph - N/A   Clear
2:55 AM -0.4 °F -12.0 °F -7.6 °F 72% 30.30 in 10.0 mi NW 5.8 mph - N/A   Clear
3:15 AM -0.4 °F -12.0 °F -7.6 °F 72% 30.31 in 10.0 mi NW 5.8 mph - N/A   Clear
3:35 AM -0.4 °F -12.0 °F -7.6 °F 72% 30.30 in 10.0 mi NW 5.8 mph - N/A   Clear
3:55 AM -2.2 °F -10.4 °F -9.4 °F 71% 30.30 in 10.0 mi NNW 3.5 mph - N/A   Clear
4:15 AM -0.4 °F -12.0 °F -7.6 °F 72% 30.30 in 10.0 mi NNW 5.8 mph - N/A   Clear
4:35 AM -0.4 °F -12.0 °F -9.4 °F 66% 30.30 in 10.0 mi NNW 5.8 mph - N/A   Clear
4:55 AM -0.4 °F -13.4 °F -9.4 °F 66% 30.30 in 10.0 mi NNW 6.9 mph - N/A   Clear
5:15 AM -0.4 °F -12.0 °F -9.4 °F 66% 30.30 in 10.0 mi NNW 5.8 mph - N/A   Clear
5:35 AM -2.2 °F -14.2 °F -9.4 °F 71% 30.31 in 10.0 mi NW 5.8 mph - N/A   Clear
5:55 AM -2.2 °F -14.2 °F -9.4 °F 71% 30.31 in 10.0 mi NW 5.8 mph - N/A   Clear
6:15 AM -2.2 °F -14.2 °F -11.2 °F 66% 30.32 in 10.0 mi WNW 5.8 mph - N/A   Clear
6:35 AM -2.2 °F -14.2 °F -7.6 °F 78% 30.32 in 10.0 mi NW 5.8 mph - N/A   Clear
6:55 AM -2.2 °F -12.5 °F -9.4 °F 71% 30.32 in 10.0 mi NW 4.6 mph - N/A   Clear
7:15 AM -2.2 °F -14.2 °F -11.2 °F 66% 30.32 in 10.0 mi NW 5.8 mph - N/A   Clear
7:35 AM -2.2 °F -12.5 °F -9.4 °F 71% 30.32 in 10.0 mi NW 4.6 mph - N/A   Clear
7:55 AM -2.2 °F -12.5 °F -11.2 °F 66% 30.32 in 10.0 mi NW 4.6 mph - N/A   Clear
8:15 AM -0.4 °F -8.3 °F -9.4 °F 66% 30.32 in 10.0 mi NW 3.5 mph - N/A   Clear
8:35 AM -0.4 °F -8.3 °F -9.4 °F 66% 30.32 in 10.0 mi NNW 3.5 mph - N/A   Clear
8:55 AM -0.4 °F -10.4 °F -11.2 °F 60% 30.34 in 10.0 mi NW 4.6 mph - N/A   Clear
9:15 AM 1.4 °F - -9.4 °F 61% 30.34 in 10.0 mi Calm Calm - N/A   Clear
9:35 AM 3.2 °F - -7.6 °F 61% 30.34 in 10.0 mi Calm Calm - N/A   Clear
9:55 AM 3.2 °F -4.2 °F -9.4 °F 56% 30.35 in 10.0 mi West 3.5 mph - N/A   Clear
10:15 AM 3.2 °F -7.8 °F -7.6 °F 61% 30.35 in 10.0 mi West 5.8 mph - N/A   Clear
10:35 AM 5.0 °F -2.1 °F -7.6 °F 56% 30.36 in 10.0 mi WNW 3.5 mph - N/A   Clear
10:55 AM 6.8 °F -0.1 °F -7.6 °F 52% 30.36 in 10.0 mi WNW 3.5 mph - N/A   Clear
11:15 AM 6.8 °F -2.0 °F -5.8 °F 56% 30.36 in 10.0 mi WNW 4.6 mph - N/A   Clear
11:35 AM 8.6 °F -3.7 °F -5.8 °F 52% 30.35 in 10.0 mi West 8.1 mph - N/A   Clear
11:55 AM 8.6 °F -1.3 °F -5.8 °F 52% 30.34 in 10.0 mi West 5.8 mph - N/A   Clear
12:15 PM 8.6 °F -2.6 °F -4.0 °F 57% 30.34 in 10.0 mi West 6.9 mph - N/A   Clear
12:35 PM 10.4 °F 0.8 °F -4.0 °F 52% 30.32 in 10.0 mi West 5.8 mph - N/A   Mostly Cloudy
12:55 PM 10.4 °F 0.8 °F -4.0 °F 52% 30.32 in 10.0 mi West 5.8 mph - N/A   Overcast
1:15 PM 12.2 °F 2.9 °F -4.0 °F 48% 30.30 in 10.0 mi West 5.8 mph - N/A   Overcast
1:35 PM 12.2 °F 1.7 °F -4.0 °F 48% 30.29 in 10.0 mi WSW 6.9 mph - N/A   Overcast
1:55 PM 12.2 °F -0.2 °F -4.0 °F 48% 30.29 in 10.0 mi WSW 9.2 mph - N/A   Overcast
2:15 PM 12.2 °F 2.9 °F -4.0 °F 48% 30.29 in 10.0 mi West 5.8 mph - N/A   Overcast
2:35 PM 12.2 °F 1.7 °F -4.0 °F 48% 30.29 in 10.0 mi West 6.9 mph - N/A   Overcast
2:55 PM 14.0 °F 3.9 °F -4.0 °F 45% 30.28 in 10.0 mi West 6.9 mph - N/A   Overcast
3:15 PM 14.0 °F 5.1 °F -4.0 °F 45% 30.28 in 10.0 mi WSW 5.8 mph - N/A   Overcast
3:35 PM 14.0 °F 2.9 °F -2.2 °F 49% 30.27 in 10.0 mi WNW 8.1 mph - N/A   Overcast
3:55 PM 15.8 °F 7.2 °F -2.2 °F 45% 30.28 in 10.0 mi WNW 5.8 mph - N/A   Overcast
4:15 PM 15.8 °F 8.6 °F -2.2 °F 45% 30.27 in 10.0 mi West 4.6 mph - N/A   Overcast
4:35 PM 15.8 °F 8.6 °F -2.2 °F 45% 30.26 in 10.0 mi West 4.6 mph - N/A   Scattered Clouds
4:55 PM 14.0 °F 6.5 °F -2.2 °F 49% 30.27 in 10.0 mi WSW 4.6 mph - N/A   Clear
5:15 PM 14.0 °F - -2.2 °F 49% 30.26 in 10.0 mi Calm Calm - N/A   Scattered Clouds
5:35 PM 12.2 °F - -0.4 °F 57% 30.26 in 10.0 mi Calm Calm - N/A   Partly Cloudy
5:55 PM 14.0 °F - -2.2 °F 49% 30.26 in 10.0 mi Calm Calm - N/A   Mostly Cloudy
6:15 PM 12.2 °F 4.3 °F -0.4 °F 57% 30.25 in 10.0 mi South 4.6 mph - N/A   Overcast
6:35 PM 12.2 °F 6.1 °F 1.4 °F 62% 30.25 in 10.0 mi South 3.5 mph - N/A   Overcast
6:55 PM 12.2 °F - 3.2 °F 67% 30.25 in 10.0 mi Calm Calm - N/A   Overcast
7:15 PM 14.0 °F 8.2 °F 3.2 °F 62% 30.25 in 10.0 mi South 3.5 mph - N/A   Overcast
7:35 PM 15.8 °F 8.6 °F 3.2 °F 58% 30.25 in 10.0 mi SSW 4.6 mph - N/A   Overcast
7:55 PM 15.8 °F 7.2 °F 3.2 °F 58% 30.24 in 10.0 mi SSW 5.8 mph - N/A   Overcast
8:15 PM 15.8 °F 6.1 °F 3.2 °F 58% 30.24 in 10.0 mi SSW 6.9 mph - N/A   Overcast
8:35 PM 15.8 °F 6.1 °F 3.2 °F 58% 30.23 in 10.0 mi South 6.9 mph - N/A   Overcast
8:55 PM 15.8 °F 7.2 °F 3.2 °F 58% 30.23 in 10.0 mi South 5.8 mph - N/A   Overcast
9:15 PM 15.8 °F 6.1 °F 1.4 °F 53% 30.22 in 10.0 mi South 6.9 mph - N/A   Overcast
9:35 PM 15.8 °F 4.2 °F 3.2 °F 58% 30.22 in 10.0 mi South 9.2 mph - N/A   Overcast
9:55 PM 15.8 °F 5.1 °F 3.2 °F 58% 30.21 in 10.0 mi South 8.1 mph - N/A   Overcast
10:15 PM 15.8 °F 5.1 °F 3.2 °F 58% 30.21 in 10.0 mi South 8.1 mph - N/A   Overcast
10:35 PM 15.8 °F 4.2 °F 3.2 °F 58% 30.20 in 10.0 mi South 9.2 mph - N/A   Overcast
10:55 PM 15.8 °F 5.1 °F 3.2 °F 58% 30.20 in 10.0 mi South 8.1 mph - N/A   Overcast
11:15 PM 15.8 °F 3.4 °F 5.0 °F 62% 30.20 in 10.0 mi South 10.4 mph - N/A   Overcast
11:35 PM 15.8 °F 5.1 °F 6.8 °F 68% 30.19 in 10.0 mi South 8.1 mph - N/A   Overcast
11:55 PM 17.6 °F 6.4 °F 6.8 °F 63% 30.20 in 10.0 mi South 9.2 mph - N/A   Overcast